createdAt,value
2019-04-19T00:01:34.232Z,100297.15
2019-04-19T00:04:06.939Z,100310.45
2019-04-19T00:06:36.462Z,100296.66
2019-04-19T00:09:16.266Z,100303.55
2019-04-19T00:11:38.292Z,100299.93
2019-04-19T00:14:02.018Z,100308.63
2019-04-19T00:16:29.988Z,100310.41
2019-04-19T00:19:21.258Z,100313.55
2019-04-19T00:21:49.362Z,100319.05
2019-04-19T00:23:58.308Z,100311.55
2019-04-19T00:26:27.452Z,100306.19
2019-04-19T00:29:01.006Z,100310.84
2019-04-19T00:31:33.833Z,100311.53
2019-04-19T00:33:58.021Z,100309.89
2019-04-19T00:36:25.467Z,100306.27
2019-04-19T00:39:15.383Z,100306.48
2019-04-19T00:41:54.554Z,100306.83
2019-04-19T00:44:35.325Z,100311.97
2019-04-19T00:47:02.820Z,100318.84
2019-04-19T00:49:21.282Z,100310.70
2019-04-19T00:51:56.491Z,100305.33
2019-04-19T00:54:17.860Z,100304.82
2019-04-19T00:56:46.656Z,100306.73
2019-04-19T00:59:10.169Z,100309.88
2019-04-19T01:01:37.420Z,100316.30
2019-04-19T01:04:11.759Z,100321.30
2019-04-19T01:06:44.003Z,100323.56
2019-04-19T01:09:22.727Z,100327.30
2019-04-19T01:11:51.686Z,100323.41
2019-04-19T01:14:18.360Z,100326.08
2019-04-19T01:16:51.560Z,100324.45
2019-04-19T01:19:08.034Z,100333.81
2019-04-19T01:21:34.330Z,100090.67
2019-04-19T01:24:04.887Z,100324.02
2019-04-19T01:26:39.969Z,100335.71
2019-04-19T01:29:06.234Z,100319.94
2019-04-19T01:31:32.508Z,100327.52
2019-04-19T01:34:03.872Z,100322.49
2019-04-19T01:36:34.917Z,100329.77
2019-04-19T01:39:17.945Z,100338.17
2019-04-19T01:41:41.799Z,100334.52
2019-04-19T01:44:23.874Z,100336.41
2019-04-19T01:46:59.436Z,100332.34
2019-04-19T01:49:46.244Z,100342.91
2019-04-19T01:52:13.074Z,100340.64
2019-04-19T01:54:42.231Z,100334.38
2019-04-19T01:56:58.208Z,100221.41
2019-04-19T01:59:31.505Z,100340.42
2019-04-19T02:01:59.470Z,100333.77
2019-04-19T02:04:26.684Z,100340.93
2019-04-19T02:06:53.049Z,100335.13
2019-04-19T02:09:32.706Z,100340.12
2019-04-19T02:12:17.350Z,100338.84
2019-04-19T02:14:39.499Z,100347.55
2019-04-19T02:17:04.248Z,100347.28
2019-04-19T02:19:29.748Z,100339.34
2019-04-19T02:22:00.127Z,100360.34
2019-04-19T02:24:34.677Z,100344.95
2019-04-19T02:27:02.520Z,100343.44
2019-04-19T02:29:29.659Z,100352.37
2019-04-19T02:37:33.381Z,100356.20
2019-04-19T02:39:55.833Z,100354.28
2019-04-19T02:47:34.679Z,100354.58
2019-04-19T02:49:51.616Z,100366.27
2019-04-19T02:52:29.421Z,100367.89
2019-04-19T02:57:32.814Z,100361.99
2019-04-19T03:00:12.983Z,100371.94
2019-04-19T03:05:13.105Z,100368.70
2019-04-19T03:07:17.689Z,100379.05
2019-04-19T03:09:46.892Z,100380.06
2019-04-19T03:12:35.133Z,100376.34
2019-04-19T03:15:03.134Z,100373.83
2019-04-19T03:17:33.629Z,100377.25
2019-04-19T03:20:04.082Z,100379.84
2019-04-19T03:22:29.463Z,100372.79
2019-04-19T03:25:03.498Z,100379.17
2019-04-19T03:27:20.291Z,100340.23
2019-04-19T03:29:45.260Z,100408.53
2019-04-19T03:35:01.160Z,100379.60
2019-04-19T03:37:44.985Z,100390.50
2019-04-19T03:40:08.553Z,100387.36
2019-04-19T03:45:22.007Z,100394.16
2019-04-19T03:47:44.579Z,100393.59
2019-04-19T03:50:10.553Z,100394.07
2019-04-19T03:52:36.911Z,100396.66
2019-04-19T03:55:09.105Z,100406.81
2019-04-19T03:57:31.252Z,100408.25
2019-04-19T03:59:48.618Z,100405.12
2019-04-19T04:02:24.482Z,100401.44
2019-04-19T04:04:57.237Z,100394.78
2019-04-19T04:07:20.810Z,100412.80
2019-04-19T04:09:51.754Z,100407.86
2019-04-19T04:12:32.271Z,100411.52
2019-04-19T04:15:07.270Z,100410.55
2019-04-19T04:17:26.870Z,100412.77
2019-04-19T04:19:55.184Z,100221.57
2019-04-19T04:22:29.710Z,100411.86
2019-04-19T04:25:01.838Z,100424.34
2019-04-19T04:27:36.523Z,100423.37
2019-04-19T04:30:04.660Z,100432.88
2019-04-19T04:32:40.550Z,100434.30
2019-04-19T04:35:08.827Z,100443.18
2019-04-19T04:37:39.749Z,100445.39
2019-04-19T04:39:51.340Z,100435.52
2019-04-19T04:42:26.591Z,100443.05
2019-04-19T04:45:15.317Z,100478.17
2019-04-19T04:47:37.092Z,100453.48
2019-04-19T04:50:11.251Z,100455.70
2019-04-19T04:52:35.651Z,100459.08
2019-04-19T04:55:09.261Z,100459.08
2019-04-19T04:57:45.873Z,100456.31
2019-04-19T05:00:08.039Z,100462.43
2019-04-19T05:02:53.705Z,100457.70
2019-04-19T05:05:25.876Z,100457.45
2019-04-19T05:08:00.227Z,100469.47
2019-04-19T05:10:24.913Z,100460.97
2019-04-19T05:13:12.378Z,100462.89
2019-04-19T05:15:26.391Z,100473.28
2019-04-19T05:18:03.252Z,100472.66
2019-04-19T05:20:27.878Z,100467.08
2019-04-19T05:22:58.923Z,100468.42
2019-04-19T05:25:33.410Z,100478.39
2019-04-19T05:27:55.543Z,100467.12
2019-04-19T05:30:07.107Z,100472.60
2019-04-19T05:32:37.438Z,100474.11
2019-04-19T05:35:19.430Z,100477.37
2019-04-19T05:37:58.382Z,100485.20
2019-04-19T05:40:32.055Z,100480.58
2019-04-19T05:42:59.157Z,100474.78
2019-04-19T05:45:40.521Z,100481.77
2019-04-19T05:47:53.694Z,100487.00
2019-04-19T05:50:31.891Z,100500.73
2019-04-19T05:52:55.081Z,100502.59
2019-04-19T05:55:11.602Z,100494.78
2019-04-19T05:57:53.728Z,100503.56
2019-04-19T06:00:21.691Z,100491.80
2019-04-19T06:02:53.576Z,100485.89
2019-04-19T06:05:37.659Z,100489.67
2019-04-19T06:07:49.064Z,100497.02
2019-04-19T06:10:10.628Z,100493.10
2019-04-19T06:12:38.916Z,100492.36
2019-04-19T06:15:25.812Z,100502.09
2019-04-19T06:17:58.788Z,100496.79
2019-04-19T06:20:26.463Z,100499.77
2019-04-19T06:22:58.012Z,100502.34
2019-04-19T06:25:35.582Z,100500.31
2019-04-19T06:28:21.064Z,100504.27
2019-04-19T06:30:35.010Z,100500.92
2019-04-19T06:32:57.739Z,100502.36
2019-04-19T06:35:22.575Z,100273.56
2019-04-19T06:37:37.646Z,100500.84
2019-04-19T06:40:14.618Z,100506.21
2019-04-19T06:42:46.452Z,100502.06
2019-04-19T06:45:22.685Z,100503.05
2019-04-19T06:47:45.049Z,100512.09
2019-04-19T06:50:07.405Z,100510.36
2019-04-19T06:52:37.926Z,100513.05
2019-04-19T06:55:14.182Z,100511.58
2019-04-19T06:57:46.695Z,100521.48
2019-04-19T07:00:20.561Z,100530.31
2019-04-19T07:02:37.112Z,100520.14
2019-04-19T07:05:20.388Z,100523.00
2019-04-19T07:08:07.220Z,100525.66
2019-04-19T07:10:39.586Z,100118.08
2019-04-19T07:12:55.324Z,100528.92
2019-04-19T07:15:36.749Z,100525.70
2019-04-19T07:17:50.744Z,100525.06
2019-04-19T07:20:23.038Z,100528.03
2019-04-19T07:22:52.098Z,100526.29
2019-04-19T07:25:30.460Z,100521.51
2019-04-19T07:27:48.954Z,100525.75
2019-04-19T07:30:07.278Z,100525.77
2019-04-19T07:32:43.880Z,100534.91
2019-04-19T07:35:22.377Z,100529.05
2019-04-19T07:37:52.689Z,100525.86
2019-04-19T07:40:23.596Z,100532.58
2019-04-19T07:42:51.059Z,100532.89
2019-04-19T07:45:08.787Z,100534.14
2019-04-19T07:47:43.855Z,100535.69
2019-04-19T07:50:16.288Z,100537.34
2019-04-19T07:52:42.479Z,100538.89
2019-04-19T07:55:08.229Z,100544.55
2019-04-19T07:58:06.362Z,100545.40
2019-04-19T08:00:44.997Z,100545.80
2019-04-19T08:12:55.098Z,100549.52
2019-04-19T08:15:22.434Z,100545.61
2019-04-19T08:27:31.009Z,100554.14
2019-04-19T08:29:58.273Z,100550.81
2019-04-19T08:32:21.555Z,100554.58
2019-04-19T08:34:55.766Z,100546.89
2019-04-19T08:37:25.368Z,100540.94
2019-04-19T08:40:08.632Z,100543.80
2019-04-19T08:42:34.356Z,100539.42
2019-04-19T08:44:55.830Z,100535.30
2019-04-19T08:47:28.698Z,100543.84
2019-04-19T08:49:52.923Z,100541.47
2019-04-19T08:52:27.226Z,100545.37
2019-04-19T08:55:09.404Z,100535.68
2019-04-19T08:57:22.638Z,100542.71
2019-04-19T09:00:12.383Z,100537.59
2019-04-19T09:02:34.424Z,100537.19
2019-04-19T09:05:04.924Z,100532.88
2019-04-19T09:10:18.493Z,100527.77
2019-04-19T09:12:26.938Z,100525.55
2019-04-19T09:15:02.162Z,100516.61
2019-04-19T09:17:39.027Z,100521.13
2019-04-19T09:20:11.370Z,100527.18
2019-04-19T09:22:34.328Z,100509.02
2019-04-19T09:24:50.261Z,100501.53
2019-04-19T09:27:34.758Z,100503.38
2019-04-19T09:29:58.506Z,100502.56
2019-04-19T09:32:13.957Z,100493.42
2019-04-19T09:34:43.929Z,100496.52
2019-04-19T09:37:13.341Z,100490.91
2019-04-19T09:39:47.524Z,100492.48
2019-04-19T09:42:13.843Z,100493.28
2019-04-19T09:44:40.177Z,100483.73
2019-04-19T09:47:03.975Z,100484.26
2019-04-19T09:49:46.245Z,100484.93
2019-04-19T09:52:23.930Z,100478.02
2019-04-19T09:54:55.586Z,100480.52
2019-04-19T09:57:13.250Z,100473.23
2019-04-19T09:59:31.048Z,100329.54
2019-04-19T10:01:58.906Z,100474.95
2019-04-19T10:04:23.082Z,100331.16
2019-04-19T10:06:51.127Z,100475.64
2019-04-19T10:09:22.071Z,100471.27
2019-04-19T10:11:47.102Z,100473.23
2019-04-19T10:14:15.107Z,100467.25
2019-04-19T10:16:44.433Z,100466.68
2019-04-19T10:19:12.790Z,100468.44
2019-04-19T10:21:49.328Z,100464.19
2019-04-19T10:24:19.663Z,100469.10
2019-04-19T10:26:48.387Z,100465.91
2019-04-19T10:29:24.601Z,100467.59
2019-04-19T10:31:46.808Z,100461.05
2019-04-19T10:34:16.431Z,100328.94
2019-04-19T10:36:46.180Z,100458.89
2019-04-19T10:39:16.854Z,100458.82
2019-04-19T10:41:44.037Z,100454.94
2019-04-19T10:44:15.465Z,100457.31
2019-04-19T10:46:40.655Z,100448.55
2019-04-19T10:49:14.846Z,100455.20
2019-04-19T10:51:47.271Z,100467.14
2019-04-19T10:54:14.908Z,100451.30
2019-04-19T10:56:56.816Z,100460.51
2019-04-19T10:59:24.686Z,100456.69
2019-04-19T11:01:52.329Z,100466.44
2019-04-19T11:04:20.615Z,100457.37
2019-04-19T11:06:47.866Z,100452.54
2019-04-19T11:09:14.853Z,100452.02
2019-04-19T11:11:41.695Z,100448.94
2019-04-19T11:14:10.120Z,100447.39
2019-04-19T11:16:37.598Z,100452.31
2019-04-19T11:19:14.206Z,100444.42
2019-04-19T11:21:33.911Z,100441.58
2019-04-19T11:24:01.883Z,100442.67
2019-04-19T11:26:28.885Z,100441.14
2019-04-19T11:28:56.792Z,100437.96
2019-04-19T11:31:41.681Z,100442.13
2019-04-19T11:34:09.029Z,100432.80
2019-04-19T11:36:35.977Z,100437.42
2019-04-19T11:39:05.233Z,100432.16
2019-04-19T11:41:33.336Z,100427.01
2019-04-19T11:44:06.203Z,100445.44
2019-04-19T11:46:30.262Z,100427.99
2019-04-19T11:48:57.661Z,100282.78
2019-04-19T11:51:25.687Z,100426.38
2019-04-19T11:53:52.539Z,100419.55
2019-04-19T11:56:22.614Z,100434.88
2019-04-19T11:58:52.823Z,100440.70
2019-04-19T12:01:21.778Z,100259.14
2019-04-19T12:03:50.030Z,100423.27
2019-04-19T12:06:18.387Z,100419.22
2019-04-19T12:08:46.423Z,100418.97
2019-04-19T12:11:15.975Z,100418.62
2019-04-19T12:13:43.741Z,100409.14
2019-04-19T12:16:10.916Z,100409.91
2019-04-19T12:18:40.015Z,100415.30
2019-04-19T12:21:07.276Z,100413.01
2019-04-19T12:23:34.772Z,100411.72
2019-04-19T12:26:01.875Z,100415.16
2019-04-19T12:28:29.977Z,100414.71
2019-04-19T12:30:58.634Z,100409.01
2019-04-19T12:33:25.507Z,100411.07
2019-04-19T12:35:53.073Z,100254.69
2019-04-19T12:38:19.963Z,100407.33
2019-04-19T12:40:49.913Z,100402.16
2019-04-19T12:43:17.941Z,100402.03
2019-04-19T12:45:50.186Z,100389.73
2019-04-19T12:48:14.721Z,100264.87
2019-04-19T12:50:42.113Z,100404.52
2019-04-19T12:53:09.547Z,100406.17
2019-04-19T12:55:37.827Z,100402.33
2019-04-19T12:58:05.967Z,100396.16
2019-04-19T13:00:45.882Z,100390.38
2019-04-19T13:03:18.017Z,100386.37
2019-04-19T13:05:46.765Z,100376.73
2019-04-19T13:08:14.941Z,100372.92
2019-04-19T13:10:42.968Z,100373.58
2019-04-19T13:13:09.964Z,100368.68
2019-04-19T13:15:36.912Z,100289.44
2019-04-19T13:18:04.377Z,100370.16
2019-04-19T13:20:35.358Z,100369.58
2019-04-19T13:23:02.098Z,100374.54
2019-04-19T13:25:29.336Z,100368.24
2019-04-19T13:27:59.620Z,100215.03
2019-04-19T13:30:35.919Z,100366.28
2019-04-19T13:32:54.907Z,100362.05
2019-04-19T13:35:23.427Z,100363.91
2019-04-19T13:37:55.068Z,100360.88
2019-04-19T13:40:30.348Z,100349.53
2019-04-19T13:43:00.055Z,100346.14
2019-04-19T13:45:31.324Z,100361.68
2019-04-19T13:47:56.593Z,100357.46
2019-04-19T13:50:30.314Z,100355.77
2019-04-19T13:52:52.960Z,100359.75
2019-04-19T13:55:20.984Z,100357.43
2019-04-19T13:57:47.867Z,100348.77
2019-04-19T14:00:22.696Z,100356.03
2019-04-19T14:02:49.577Z,100364.23
2019-04-19T14:05:17.808Z,100352.28
2019-04-19T14:07:45.329Z,100356.92
2019-04-19T14:10:14.998Z,100353.20
2019-04-19T14:12:45.272Z,100352.36
2019-04-19T14:15:15.228Z,100344.58
2019-04-19T14:17:45.487Z,100343.80
2019-04-19T14:20:20.295Z,100342.34
2019-04-19T14:22:41.753Z,100347.79
2019-04-19T14:25:09.551Z,100355.02
2019-04-19T14:27:37.488Z,100346.03
2019-04-19T14:30:06.502Z,100347.00
2019-04-19T14:32:33.760Z,100198.50
2019-04-19T14:35:01.987Z,100341.52
2019-04-19T14:37:29.882Z,100338.67
2019-04-19T14:39:58.492Z,100351.85
2019-04-19T14:42:28.398Z,100331.29
2019-04-19T14:44:58.317Z,100336.14
2019-04-19T14:47:28.636Z,100331.94
2019-04-19T14:49:58.911Z,100336.98
2019-04-19T14:52:30.135Z,100327.53
2019-04-19T14:54:57.631Z,100339.77
2019-04-19T14:57:24.978Z,100338.70
2019-04-19T14:59:56.855Z,100344.80
2019-04-19T15:02:45.743Z,100344.86
2019-04-19T15:05:17.482Z,100330.84
2019-04-19T15:07:44.790Z,100334.86
2019-04-19T15:10:13.534Z,100338.23
2019-04-19T15:12:41.183Z,100337.53
2019-04-19T15:15:08.666Z,100331.86
2019-04-19T15:17:35.950Z,100338.76
2019-04-19T15:20:05.837Z,100339.93
2019-04-19T15:22:35.770Z,100330.05
2019-04-19T15:25:06.587Z,100335.66
2019-04-19T15:27:37.088Z,100334.00
2019-04-19T15:30:07.846Z,100329.84
2019-04-19T15:32:36.263Z,100335.81
2019-04-19T15:35:05.700Z,100337.80
2019-04-19T15:37:33.925Z,100332.45
2019-04-19T15:40:02.352Z,100331.59
2019-04-19T15:42:32.460Z,100326.98
2019-04-19T15:45:00.694Z,100334.11
2019-04-19T15:47:28.670Z,100331.67
2019-04-19T15:50:00.023Z,100327.73
2019-04-19T15:52:28.223Z,100332.27
2019-04-19T15:54:56.440Z,100330.71
2019-04-19T15:57:28.126Z,100327.88
2019-04-19T16:00:02.309Z,100324.69
2019-04-19T16:02:30.283Z,100323.02
2019-04-19T16:05:14.215Z,100327.19
2019-04-19T16:07:55.843Z,100321.95
2019-04-19T16:10:40.272Z,100316.95
2019-04-19T16:13:08.139Z,100319.78
2019-04-19T16:15:36.061Z,100312.59
2019-04-19T16:18:04.086Z,100319.14
2019-04-19T16:20:33.629Z,100323.03
2019-04-19T16:23:04.162Z,100319.20
2019-04-19T16:25:33.814Z,100325.51
2019-04-19T16:28:01.334Z,100321.78
2019-04-19T16:30:30.426Z,100326.06
2019-04-19T16:32:59.698Z,100330.72
2019-04-19T16:35:28.370Z,100318.64
2019-04-19T16:37:55.883Z,100325.50
2019-04-19T16:40:24.597Z,100322.14
2019-04-19T16:42:59.463Z,100320.05
2019-04-19T16:45:36.042Z,100321.87
2019-04-19T16:48:12.949Z,100166.86
2019-04-19T16:50:48.619Z,100335.61
2019-04-19T16:53:22.187Z,100323.78
2019-04-19T16:55:57.423Z,100320.84
2019-04-19T16:58:32.987Z,100159.94
2019-04-19T17:01:00.908Z,100318.50
2019-04-19T17:03:28.144Z,100322.25
2019-04-19T17:05:56.950Z,100314.55
2019-04-19T17:08:27.290Z,100324.47
2019-04-19T17:10:55.524Z,100323.85
2019-04-19T17:13:22.772Z,100316.89
2019-04-19T17:15:56.981Z,100327.48
2019-04-19T17:18:38.949Z,100327.77
2019-04-19T17:21:15.501Z,100331.11
2019-04-19T17:23:42.740Z,100336.41
2019-04-19T17:26:10.851Z,100327.19
2019-04-19T17:28:39.014Z,100325.65
2019-04-19T17:31:06.425Z,100329.57
2019-04-19T17:33:33.462Z,100332.31
2019-04-19T17:36:00.261Z,100332.56
2019-04-19T17:38:38.361Z,100340.34
2019-04-19T17:40:58.685Z,100343.32
2019-04-19T17:43:27.938Z,100335.50
2019-04-19T17:45:56.901Z,100341.03
2019-04-19T17:48:26.331Z,100335.02
2019-04-19T17:50:53.647Z,100339.61
2019-04-19T17:53:25.230Z,100345.12
2019-04-19T17:55:53.081Z,100350.10
2019-04-19T17:58:19.235Z,100349.31
2019-04-19T18:00:48.881Z,100357.38
2019-04-19T18:03:17.283Z,100178.36
2019-04-19T18:05:45.540Z,100361.97
2019-04-19T18:08:20.357Z,100360.13
2019-04-19T18:10:46.844Z,100183.98
2019-04-19T18:13:10.858Z,100369.37
2019-04-19T18:15:38.636Z,100198.06
2019-04-19T18:18:08.322Z,100365.95
2019-04-19T18:20:34.964Z,100370.49
2019-04-19T18:23:08.674Z,100373.50
2019-04-19T18:25:35.149Z,100373.44
2019-04-19T18:28:06.154Z,100377.22
2019-04-19T18:30:33.698Z,100380.59
2019-04-19T18:33:04.349Z,100376.89
2019-04-19T18:35:35.161Z,100375.52
2019-04-19T18:38:01.010Z,100381.82
2019-04-19T18:40:29.256Z,100388.05
2019-04-19T18:43:12.472Z,100390.12
2019-04-19T18:45:28.570Z,100391.20
2019-04-19T18:47:54.837Z,100386.91
2019-04-19T18:50:22.438Z,100394.05
2019-04-19T18:52:58.797Z,100395.75
2019-04-19T18:55:28.773Z,100394.27
2019-04-19T18:57:49.424Z,100394.98
2019-04-19T19:00:18.559Z,100392.47
2019-04-19T19:02:51.646Z,100397.70
2019-04-19T19:05:16.264Z,100403.41
2019-04-19T19:07:43.581Z,100402.71
2019-04-19T19:10:18.759Z,100402.84
2019-04-19T19:12:45.146Z,100407.99
2019-04-19T19:15:10.309Z,100408.73
2019-04-19T19:17:38.185Z,100402.89
2019-04-19T19:20:14.185Z,100409.78
2019-04-19T19:22:55.949Z,100406.59
2019-04-19T19:25:24.721Z,100404.41
2019-04-19T19:27:37.854Z,100434.38
2019-04-19T19:30:09.035Z,100406.37
2019-04-19T19:32:35.938Z,100408.33
2019-04-19T19:35:09.194Z,100413.16
2019-04-19T19:37:36.386Z,100404.20
2019-04-19T19:40:09.800Z,100410.19
2019-04-19T19:42:51.812Z,100405.45
2019-04-19T19:45:21.653Z,100405.85
2019-04-19T19:48:13.233Z,100404.66
2019-04-19T19:51:01.570Z,100403.49
2019-04-19T19:53:07.578Z,100406.41
2019-04-19T19:55:36.089Z,100411.16
2019-04-19T19:57:58.548Z,100412.92
2019-04-19T20:00:30.845Z,100405.34
2019-04-19T20:03:01.639Z,100408.34
2019-04-19T20:05:25.725Z,100408.05
2019-04-19T20:07:51.746Z,100415.28
2019-04-19T20:10:21.171Z,100402.84
2019-04-19T20:12:55.628Z,100408.49
2019-04-19T20:15:18.613Z,100414.31
2019-04-19T20:17:51.002Z,100406.56
2019-04-19T20:20:16.279Z,100404.89
2019-04-19T20:22:45.889Z,100412.38
2019-04-19T20:25:25.753Z,100406.50
2019-04-19T20:27:46.670Z,100410.13
2019-04-19T20:30:11.731Z,100418.42
2019-04-19T20:32:38.883Z,100217.42
2019-04-19T20:35:15.130Z,100414.17
2019-04-19T20:37:35.452Z,100415.45
2019-04-19T20:40:09.406Z,100033.04
2019-04-19T20:43:00.000Z,100426.34
2019-04-19T20:45:08.907Z,100422.80
2019-04-19T20:47:33.122Z,100420.18
2019-04-19T20:50:11.868Z,100415.69
2019-04-19T20:52:45.439Z,100422.86
2019-04-19T20:55:20.351Z,100418.97
2019-04-19T20:57:51.362Z,100416.95
2019-04-19T21:00:10.021Z,100420.53
2019-04-19T21:02:40.272Z,100428.48
2019-04-19T21:05:08.182Z,100421.32
2019-04-19T21:07:38.561Z,100423.81
2019-04-19T21:10:10.821Z,100231.16
2019-04-19T21:12:36.660Z,100426.45
2019-04-19T21:15:13.813Z,100432.16
2019-04-19T21:17:42.395Z,100430.15
2019-04-19T21:20:04.911Z,100430.44
2019-04-19T21:22:36.510Z,100431.20
2019-04-19T21:25:10.218Z,100428.84
2019-04-19T21:27:32.300Z,100432.06
2019-04-19T21:30:02.414Z,100437.50
2019-04-19T21:32:30.920Z,100437.45
2019-04-19T21:35:00.995Z,100433.25
2019-04-19T21:37:31.777Z,100436.78
2019-04-19T21:39:54.984Z,100430.87
2019-04-19T21:42:24.413Z,100435.02
2019-04-19T21:44:56.701Z,100440.44
2019-04-19T21:47:20.057Z,100431.55
2019-04-19T21:49:50.891Z,100431.07
2019-04-19T21:52:20.908Z,100441.58
2019-04-19T21:54:47.699Z,100441.58
2019-04-19T21:57:18.683Z,100431.99
2019-04-19T21:59:44.180Z,100435.56
2019-04-19T22:02:17.697Z,100436.00
2019-04-19T22:04:47.734Z,100434.91
2019-04-19T22:07:12.978Z,100440.48
2019-04-19T22:09:43.385Z,100438.28
2019-04-19T22:12:10.239Z,100433.29
2019-04-19T22:14:38.224Z,100443.47
2019-04-19T22:17:10.992Z,100437.53
2019-04-19T22:19:36.667Z,100440.78
2019-04-19T22:22:04.371Z,100435.05
2019-04-19T22:24:34.702Z,100443.24
2019-04-19T22:27:00.923Z,100447.88
2019-04-19T22:29:27.771Z,100444.47
2019-04-19T22:31:56.540Z,100445.98
2019-04-19T22:34:24.398Z,100447.78
2019-04-19T22:36:53.436Z,100445.91
2019-04-19T22:39:21.309Z,100441.24
2019-04-19T22:41:48.729Z,100442.48
2019-04-19T22:44:16.630Z,100442.30
2019-04-19T22:46:49.438Z,100442.88
2019-04-19T22:49:14.635Z,100442.50
2019-04-19T22:51:41.040Z,100450.62
2019-04-19T22:54:08.569Z,100445.92
2019-04-19T22:56:48.162Z,100445.89
2019-04-19T22:59:11.062Z,100447.70
2019-04-19T23:01:57.328Z,100454.52
2019-04-19T23:04:24.166Z,100449.09
2019-04-19T23:06:54.573Z,100452.98
2019-04-19T23:09:22.811Z,100451.40
2019-04-19T23:11:48.589Z,100449.86
2019-04-19T23:14:22.169Z,100445.34
2019-04-19T23:16:50.505Z,100443.80
2019-04-19T23:19:14.788Z,100443.73
2019-04-19T23:21:48.415Z,100437.97
2019-04-19T23:24:14.975Z,100442.53
2019-04-19T23:27:00.753Z,100442.05
2019-04-19T23:29:12.068Z,100441.11
2019-04-19T23:31:44.195Z,100218.95
2019-04-19T23:34:10.614Z,100434.55
2019-04-19T23:36:39.486Z,100433.88
2019-04-19T23:39:11.077Z,100432.27
2019-04-19T23:41:37.219Z,100441.37
2019-04-19T23:44:12.296Z,100437.76
2019-04-19T23:46:37.074Z,100443.44
2019-04-19T23:49:08.689Z,100442.16
2019-04-19T23:51:33.485Z,100448.89
2019-04-19T23:54:03.586Z,100445.00
2019-04-19T23:56:38.361Z,100248.41
2019-04-19T23:59:06.004Z,100447.11
